sensor_id;sensor_type;location;lat;lon;timestamp;P1;P2;P0
61804;PMS7003;47725;47.912;7.356;2023-10-19T00:02:19;19.44;16.79;
61804;PMS7003;47725;47.912;7.356;2023-10-19T00:06:19;19.44;16.79;
61804;PMS7003;47725;47.912;7.356;2023-10-19T00:10:19;19.39;18.51;
61804;PMS7003;47725;47.912;7.356;2023-10-19T00:14:19;19.39;18.51;
61804;PMS7003;47725;47.912;7.356;2023-10-19T00:18:19;19.39;18.51;
61804;PMS7003;47725;47.912;7.356;2023-10-19T00:22:19;20.42;15.98;
61804;PMS7003;47725;47.912;7.356;2023-10-19T00:26:19;20.42;15.98;
61804;PMS7003;47725;47.912;7.356;2023-10-19T00:30:19;21.24;16.81;
61804;PMS7003;47725;47.912;7.356;2023-10-19T00:34:19;21.24;16.81;
61804;PMS7003;47725;47.912;7.356;2023-10-19T00:38:19;21.24;16.81;
61804;PMS7003;47725;47.912;7.356;2023-10-19T00:42:19;21.32;18.65;
61804;PMS7003;47725;47.912;7.356;2023-10-19T00:46:19;21.32;18.65;
61804;PMS7003;47725;47.912;7.356;2023-10-19T00:50:19;19.42;18.54;
61804;PMS7003;47725;47.912;7.356;2023-10-19T00:54:26;19.42;18.54;
61804;PMS7003;47725;47.912;7.356;2023-10-19T00:58:19;19.42;18.54;
61804;PMS7003;47725;47.912;7.356;2023-10-19T01:02:20;16.83;15.06;
61804;PMS7003;47725;47.912;7.356;2023-10-19T01:06:19;16.83;15.06;
61804;PMS7003;47725;47.912;7.356;2023-10-19T01:10:19;13.21;12.33;
61804;PMS7003;47725;47.912;7.356;2023-10-19T01:14:20;13.21;12.33;
61804;PMS7003;47725;47.912;7.356;2023-10-19T01:18:19;13.21;12.33;
61804;PMS7003;47725;47.912;7.356;2023-10-19T01:22:19;18.58;15.04;
61804;PMS7003;47725;47.912;7.356;2023-10-19T01:26:19;18.58;15.04;
61804;PMS7003;47725;47.912;7.356;2023-10-19T01:30:19;16.00;12.44;
61804;PMS7003;47725;47.912;7.356;2023-10-19T01:34:19;16.00;12.44;
61804;PMS7003;47725;47.912;7.356;2023-10-19T01:38:19;16.00;12.44;
61804;PMS7003;47725;47.912;7.356;2023-10-19T01:42:19;18.65;16.87;
61804;PMS7003;47725;47.912;7.356;2023-10-19T01:46:20;18.65;16.87;
61804;PMS7003;47725;47.912;7.356;2023-10-19T01:50:19;17.62;15.86;
61804;PMS7003;47725;47.912;7.356;2023-10-19T01:54:22;17.62;15.86;
61804;PMS7003;47725;47.912;7.356;2023-10-19T01:58:19;17.62;15.86;
61804;PMS7003;47725;47.912;7.356;2023-10-19T02:02:19;19.35;16.71;
61804;PMS7003;47725;47.912;7.356;2023-10-19T02:06:19;19.35;16.71;
61804;PMS7003;47725;47.912;7.356;2023-10-19T02:10:19;14.13;13.25;
61804;PMS7003;47725;47.912;7.356;2023-10-19T02:14:19;14.13;13.25;
61804;PMS7003;47725;47.912;7.356;2023-10-19T02:18:19;14.13;13.25;
61804;PMS7003;47725;47.912;7.356;2023-10-19T02:22:19;12.36;10.59;
61804;PMS7003;47725;47.912;7.356;2023-10-19T02:26:20;12.36;10.59;
61804;PMS7003;47725;47.912;7.356;2023-10-19T02:30:19;21.20;19.43;
61804;PMS7003;47725;47.912;7.356;2023-10-19T02:34:19;21.20;19.43;
61804;PMS7003;47725;47.912;7.356;2023-10-19T02:38:19;21.20;19.43;
61804;PMS7003;47725;47.912;7.356;2023-10-19T02:42:19;19.44;17.67;
61804;PMS7003;47725;47.912;7.356;2023-10-19T02:46:19;19.44;17.67;
61804;PMS7003;47725;47.912;7.356;2023-10-19T02:50:19;12.32;12.32;
61804;PMS7003;47725;47.912;7.356;2023-10-19T02:54:20;12.32;12.32;
61804;PMS7003;47725;47.912;7.356;2023-10-19T02:58:19;12.32;12.32;
61804;PMS7003;47725;47.912;7.356;2023-10-19T03:02:19;18.48;16.72;
61804;PMS7003;47725;47.912;7.356;2023-10-19T03:06:22;18.48;16.72;
61804;PMS7003;47725;47.912;7.356;2023-10-19T03:10:19;14.98;13.22;
61804;PMS7003;47725;47.912;7.356;2023-10-19T03:14:19;14.98;13.22;
61804;PMS7003;47725;47.912;7.356;2023-10-19T03:18:19;14.98;13.22;
61804;PMS7003;47725;47.912;7.356;2023-10-19T03:22:19;13.23;11.47;
61804;PMS7003;47725;47.912;7.356;2023-10-19T03:26:19;13.23;11.47;
61804;PMS7003;47725;47.912;7.356;2023-10-19T03:30:19;14.10;11.46;
61804;PMS7003;47725;47.912;7.356;2023-10-19T03:34:19;14.10;11.46;
61804;PMS7003;47725;47.912;7.356;2023-10-19T03:38:19;14.10;11.46;
61804;PMS7003;47725;47.912;7.356;2023-10-19T03:42:19;13.25;12.36;
61804;PMS7003;47725;47.912;7.356;2023-10-19T03:46:19;13.25;12.36;
61804;PMS7003;47725;47.912;7.356;2023-10-19T03:50:19;13.28;13.28;
61804;PMS7003;47725;47.912;7.356;2023-10-19T03:54:19;13.28;13.28;
61804;PMS7003;47725;47.912;7.356;2023-10-19T03:58:19;13.28;13.28;
61804;PMS7003;47725;47.912;7.356;2023-10-19T04:02:19;9.74;8.85;
61804;PMS7003;47725;47.912;7.356;2023-10-19T04:06:19;9.74;8.85;
61804;PMS7003;47725;47.912;7.356;2023-10-19T04:10:19;8.84;8.84;
61804;PMS7003;47725;47.912;7.356;2023-10-19T04:14:19;8.84;8.84;
61804;PMS7003;47725;47.912;7.356;2023-10-19T04:18:19;8.84;8.84;
61804;PMS7003;47725;47.912;7.356;2023-10-19T04:22:19;39.21;31.19;
61804;PMS7003;47725;47.912;7.356;2023-10-19T04:26:19;39.21;31.19;
61804;PMS7003;47725;47.912;7.356;2023-10-19T04:30:19;15.94;15.94;
61804;PMS7003;47725;47.912;7.356;2023-10-19T04:34:19;15.94;15.94;
61804;PMS7003;47725;47.912;7.356;2023-10-19T04:38:19;15.94;15.94;
61804;PMS7003;47725;47.912;7.356;2023-10-19T04:42:19;15.95;15.07;
61804;PMS7003;47725;47.912;7.356;2023-10-19T04:46:19;15.95;15.07;
61804;PMS7003;47725;47.912;7.356;2023-10-19T04:50:19;17.80;16.02;
61804;PMS7003;47725;47.912;7.356;2023-10-19T04:54:19;17.80;16.02;
61804;PMS7003;47725;47.912;7.356;2023-10-19T04:58:19;17.80;16.02;
61804;PMS7003;47725;47.912;7.356;2023-10-19T05:02:19;14.25;11.58;
61804;PMS7003;47725;47.912;7.356;2023-10-19T05:06:19;14.25;11.58;
61804;PMS7003;47725;47.912;7.356;2023-10-19T05:10:19;18.50;18.50;
61804;PMS7003;47725;47.912;7.356;2023-10-19T05:14:19;18.50;18.50;
61804;PMS7003;47725;47.912;7.356;2023-10-19T05:18:19;18.50;18.50;
61804;PMS7003;47725;47.912;7.356;2023-10-19T05:22:19;23.78;19.38;
61804;PMS7003;47725;47.912;7.356;2023-10-19T05:26:19;23.78;19.38;
61804;PMS7003;47725;47.912;7.356;2023-10-19T05:30:19;14.08;11.44;
61804;PMS7003;47725;47.912;7.356;2023-10-19T05:34:22;14.08;11.44;
61804;PMS7003;47725;47.912;7.356;2023-10-19T05:38:19;14.08;11.44;
61804;PMS7003;47725;47.912;7.356;2023-10-19T05:42:19;20.09;13.97;
61804;PMS7003;47725;47.912;7.356;2023-10-19T05:46:19;20.09;13.97;
61804;PMS7003;47725;47.912;7.356;2023-10-19T05:50:19;18.33;18.33;
61804;PMS7003;47725;47.912;7.356;2023-10-19T05:54:19;18.33;18.33;
61804;PMS7003;47725;47.912;7.356;2023-10-19T05:58:19;18.33;18.33;
61804;PMS7003;47725;47.912;7.356;2023-10-19T06:02:19;15.64;13.90;
61804;PMS7003;47725;47.912;7.356;2023-10-19T06:06:19;15.64;13.90;
61804;PMS7003;47725;47.912;7.356;2023-10-19T06:10:19;13.90;13.90;
61804;PMS7003;47725;47.912;7.356;2023-10-19T06:14:19;13.90;13.90;
61804;PMS7003;47725;47.912;7.356;2023-10-19T06:18:19;13.90;13.90;
61804;PMS7003;47725;47.912;7.356;2023-10-19T06:22:19;13.93;12.19;
61804;PMS7003;47725;47.912;7.356;2023-10-19T06:26:19;13.93;12.19;
61804;PMS7003;47725;47.912;7.356;2023-10-19T06:30:19;15.64;14.77;
61804;PMS7003;47725;47.912;7.356;2023-10-19T06:34:19;15.64;14.77;
61804;PMS7003;47725;47.912;7.356;2023-10-19T06:38:19;15.64;14.77;
61804;PMS7003;47725;47.912;7.356;2023-10-19T06:42:19;16.50;15.63;
61804;PMS7003;47725;47.912;7.356;2023-10-19T06:46:19;16.50;15.63;
61804;PMS7003;47725;47.912;7.356;2023-10-19T06:50:20;15.58;12.98;
61804;PMS7003;47725;47.912;7.356;2023-10-19T06:54:19;15.58;12.98;
61804;PMS7003;47725;47.912;7.356;2023-10-19T06:58:19;15.58;12.98;
61804;PMS7003;47725;47.912;7.356;2023-10-19T07:02:19;18.28;16.54;
61804;PMS7003;47725;47.912;7.356;2023-10-19T07:06:19;18.28;16.54;
61804;PMS7003;47725;47.912;7.356;2023-10-19T07:10:19;22.62;20.88;
61804;PMS7003;47725;47.912;7.356;2023-10-19T07:14:19;22.62;20.88;
61804;PMS7003;47725;47.912;7.356;2023-10-19T07:18:19;22.62;20.88;
61804;PMS7003;47725;47.912;7.356;2023-10-19T07:22:19;13.88;13.01;
61804;PMS7003;47725;47.912;7.356;2023-10-19T07:26:19;13.88;13.01;
61804;PMS7003;47725;47.912;7.356;2023-10-19T07:30:19;15.61;14.75;
61804;PMS7003;47725;47.912;7.356;2023-10-19T07:34:19;15.61;14.75;
61804;PMS7003;47725;47.912;7.356;2023-10-19T07:38:19;15.61;14.75;
61804;PMS7003;47725;47.912;7.356;2023-10-19T07:42:19;14.81;13.94;
61804;PMS7003;47725;47.912;7.356;2023-10-19T07:46:19;14.81;13.94;
61804;PMS7003;47725;47.912;7.356;2023-10-19T07:50:19;18.30;18.30;
61804;PMS7003;47725;47.912;7.356;2023-10-19T07:54:19;18.30;18.30;
61804;PMS7003;47725;47.912;7.356;2023-10-19T07:58:19;18.30;18.30;
61804;PMS7003;47725;47.912;7.356;2023-10-19T08:02:19;13.82;13.82;
61804;PMS7003;47725;47.912;7.356;2023-10-19T08:06:19;13.82;13.82;
61804;PMS7003;47725;47.912;7.356;2023-10-19T08:10:19;12.95;11.22;
61804;PMS7003;47725;47.912;7.356;2023-10-19T08:14:19;12.95;11.22;
61804;PMS7003;47725;47.912;7.356;2023-10-19T08:18:19;12.95;11.22;
61804;PMS7003;47725;47.912;7.356;2023-10-19T08:22:19;11.19;10.33;
61804;PMS7003;47725;47.912;7.356;2023-10-19T08:26:19;11.19;10.33;
61804;PMS7003;47725;47.912;7.356;2023-10-19T08:30:19;16.17;15.32;
61804;PMS7003;47725;47.912;7.356;2023-10-19T08:34:19;16.17;15.32;
61804;PMS7003;47725;47.912;7.356;2023-10-19T08:38:19;16.17;15.32;
61804;PMS7003;47725;47.912;7.356;2023-10-19T08:42:19;15.32;11.07;
61804;PMS7003;47725;47.912;7.356;2023-10-19T08:46:19;15.32;11.07;
61804;PMS7003;47725;47.912;7.356;2023-10-19T08:50:19;15.29;15.29;
61804;PMS7003;47725;47.912;7.356;2023-10-19T08:54:19;15.29;15.29;
61804;PMS7003;47725;47.912;7.356;2023-10-19T08:58:19;15.29;15.29;
61804;PMS7003;47725;47.912;7.356;2023-10-19T09:02:19;20.37;16.97;
61804;PMS7003;47725;47.912;7.356;2023-10-19T09:06:20;20.37;16.97;
61804;PMS7003;47725;47.912;7.356;2023-10-19T09:10:19;16.12;15.27;
61804;PMS7003;47725;47.912;7.356;2023-10-19T09:14:32;16.12;15.27;
61804;PMS7003;47725;47.912;7.356;2023-10-19T09:18:20;16.12;15.27;
61804;PMS7003;47725;47.912;7.356;2023-10-19T09:22:19;13.55;12.70;
61804;PMS7003;47725;47.912;7.356;2023-10-19T09:26:19;13.55;12.70;
61804;PMS7003;47725;47.912;7.356;2023-10-19T09:30:19;16.88;16.04;
61804;PMS7003;47725;47.912;7.356;2023-10-19T09:34:19;16.88;16.04;
61804;PMS7003;47725;47.912;7.356;2023-10-19T09:38:19;16.88;16.04;
61804;PMS7003;47725;47.912;7.356;2023-10-19T09:42:19;15.07;14.23;
61804;PMS7003;47725;47.912;7.356;2023-10-19T09:46:23;15.07;14.23;
61804;PMS7003;47725;47.912;7.356;2023-10-19T09:50:19;16.64;15.81;
61804;PMS7003;47725;47.912;7.356;2023-10-19T09:54:37;16.64;15.81;
61804;PMS7003;47725;47.912;7.356;2023-10-19T09:58:19;16.64;15.81;
61804;PMS7003;47725;47.912;7.356;2023-10-19T10:02:19;14.09;14.09;
61804;PMS7003;47725;47.912;7.356;2023-10-19T10:06:56;14.09;14.09;
61804;PMS7003;47725;47.912;7.356;2023-10-19T10:10:19;14.27;11.75;
61804;PMS7003;47725;47.912;7.356;2023-10-19T10:14:22;14.27;11.75;
61804;PMS7003;47725;47.912;7.356;2023-10-19T10:18:19;14.27;11.75;
61804;PMS7003;47725;47.912;7.356;2023-10-19T10:22:19;11.74;11.74;
61804;PMS7003;47725;47.912;7.356;2023-10-19T10:26:20;11.74;11.74;
61804;PMS7003;47725;47.912;7.356;2023-10-19T10:30:19;10.11;10.11;
61804;PMS7003;47725;47.912;7.356;2023-10-19T10:38:19;10.11;10.11;
61804;PMS7003;47725;47.912;7.356;2023-10-19T10:42:19;11.76;11.76;
61804;PMS7003;47725;47.912;7.356;2023-10-19T10:46:22;11.76;11.76;
61804;PMS7003;47725;47.912;7.356;2023-10-19T10:50:19;13.50;11.81;
61804;PMS7003;47725;47.912;7.356;2023-10-19T10:54:21;13.50;11.81;
61804;PMS7003;47725;47.912;7.356;2023-10-19T10:58:19;13.50;11.81;
61804;PMS7003;47725;47.912;7.356;2023-10-19T11:02:19;11.75;10.91;
61804;PMS7003;47725;47.912;7.356;2023-10-19T11:06:19;11.75;10.91;
61804;PMS7003;47725;47.912;7.356;2023-10-19T11:10:26;12.55;10.04;
61804;PMS7003;47725;47.912;7.356;2023-10-19T11:14:19;12.55;10.04;
61804;PMS7003;47725;47.912;7.356;2023-10-19T11:22:19;11.64;9.98;
61804;PMS7003;47725;47.912;7.356;2023-10-19T11:26:20;11.64;9.98;
61804;PMS7003;47725;47.912;7.356;2023-10-19T11:30:22;9.96;8.30;
61804;PMS7003;47725;47.912;7.356;2023-10-19T11:34:19;9.96;8.30;
61804;PMS7003;47725;47.912;7.356;2023-10-19T11:38:19;9.96;8.30;
61804;PMS7003;47725;47.912;7.356;2023-10-19T11:42:19;8.33;7.50;
61804;PMS7003;47725;47.912;7.356;2023-10-19T11:46:19;8.33;7.50;
61804;PMS7003;47725;47.912;7.356;2023-10-19T11:50:19;11.68;8.34;
61804;PMS7003;47725;47.912;7.356;2023-10-19T11:54:19;11.68;8.34;
61804;PMS7003;47725;47.912;7.356;2023-10-19T11:58:19;11.68;8.34;
61804;PMS7003;47725;47.912;7.356;2023-10-19T12:02:19;12.53;12.53;
61804;PMS7003;47725;47.912;7.356;2023-10-19T12:06:19;12.53;12.53;
61804;PMS7003;47725;47.912;7.356;2023-10-19T12:10:19;9.21;9.21;
61804;PMS7003;47725;47.912;7.356;2023-10-19T12:14:19;9.21;9.21;
61804;PMS7003;47725;47.912;7.356;2023-10-19T12:18:19;9.21;9.21;
61804;PMS7003;47725;47.912;7.356;2023-10-19T12:22:19;11.72;10.88;
61804;PMS7003;47725;47.912;7.356;2023-10-19T12:26:19;11.72;10.88;
61804;PMS7003;47725;47.912;7.356;2023-10-19T12:30:19;14.27;11.75;
61804;PMS7003;47725;47.912;7.356;2023-10-19T12:34:19;14.27;11.75;
61804;PMS7003;47725;47.912;7.356;2023-10-19T12:38:19;14.27;11.75;
61804;PMS7003;47725;47.912;7.356;2023-10-19T12:42:19;13.40;11.72;
61804;PMS7003;47725;47.912;7.356;2023-10-19T12:46:19;13.40;11.72;
61804;PMS7003;47725;47.912;7.356;2023-10-19T12:50:19;10.00;10.00;
61804;PMS7003;47725;47.912;7.356;2023-10-19T12:54:19;10.00;10.00;
61804;PMS7003;47725;47.912;7.356;2023-10-19T12:58:19;10.00;10.00;
61804;PMS7003;47725;47.912;7.356;2023-10-19T13:02:19;12.52;12.52;
61804;PMS7003;47725;47.912;7.356;2023-10-19T13:06:19;12.52;12.52;
61804;PMS7003;47725;47.912;7.356;2023-10-19T13:10:19;10.87;8.36;
61804;PMS7003;47725;47.912;7.356;2023-10-19T13:14:18;10.87;8.36;
61804;PMS7003;47725;47.912;7.356;2023-10-19T13:18:18;10.87;8.36;
61804;PMS7003;47725;47.912;7.356;2023-10-19T13:22:18;5.02;5.02;
61804;PMS7003;47725;47.912;7.356;2023-10-19T13:26:18;5.02;5.02;
61804;PMS7003;47725;47.912;7.356;2023-10-19T13:30:19;5.85;5.85;
61804;PMS7003;47725;47.912;7.356;2023-10-19T13:34:19;5.85;5.85;
61804;PMS7003;47725;47.912;7.356;2023-10-19T13:38:19;5.85;5.85;
61804;PMS7003;47725;47.912;7.356;2023-10-19T13:42:18;5.01;5.01;
61804;PMS7003;47725;47.912;7.356;2023-10-19T13:46:18;5.01;5.01;
61804;PMS7003;47725;47.912;7.356;2023-10-19T13:50:18;6.67;5.83;
61804;PMS7003;47725;47.912;7.356;2023-10-19T13:54:18;6.67;5.83;
61804;PMS7003;47725;47.912;7.356;2023-10-19T13:58:18;6.67;5.83;
61804;PMS7003;47725;47.912;7.356;2023-10-19T14:02:18;5.83;4.99;
61804;PMS7003;47725;47.912;7.356;2023-10-19T14:06:18;5.83;4.99;
61804;PMS7003;47725;47.912;7.356;2023-10-19T14:10:19;4.15;4.15;
61804;PMS7003;47725;47.912;7.356;2023-10-19T14:14:18;4.15;4.15;
61804;PMS7003;47725;47.912;7.356;2023-10-19T14:18:18;4.15;4.15;
61804;PMS7003;47725;47.912;7.356;2023-10-19T14:22:18;5.80;5.80;
61804;PMS7003;47725;47.912;7.356;2023-10-19T14:26:18;5.80;5.80;
61804;PMS7003;47725;47.912;7.356;2023-10-19T14:30:21;8.31;6.65;
61804;PMS7003;47725;47.912;7.356;2023-10-19T14:34:18;8.31;6.65;
61804;PMS7003;47725;47.912;7.356;2023-10-19T14:38:18;8.31;6.65;
61804;PMS7003;47725;47.912;7.356;2023-10-19T14:42:18;8.31;8.31;
61804;PMS7003;47725;47.912;7.356;2023-10-19T14:46:18;8.31;8.31;
61804;PMS7003;47725;47.912;7.356;2023-10-19T14:50:18;7.47;7.47;
61804;PMS7003;47725;47.912;7.356;2023-10-19T14:54:18;7.47;7.47;
61804;PMS7003;47725;47.912;7.356;2023-10-19T14:58:18;7.47;7.47;
61804;PMS7003;47725;47.912;7.356;2023-10-19T15:02:18;5.82;5.82;
61804;PMS7003;47725;47.912;7.356;2023-10-19T15:06:18;5.82;5.82;
61804;PMS7003;47725;47.912;7.356;2023-10-19T15:10:19;9.99;9.99;
61804;PMS7003;47725;47.912;7.356;2023-10-19T15:14:18;9.99;9.99;
61804;PMS7003;47725;47.912;7.356;2023-10-19T15:18:18;9.99;9.99;
61804;PMS7003;47725;47.912;7.356;2023-10-19T15:22:18;12.53;12.53;
61804;PMS7003;47725;47.912;7.356;2023-10-19T15:26:18;12.53;12.53;
61804;PMS7003;47725;47.912;7.356;2023-10-19T15:30:18;11.70;10.03;
61804;PMS7003;47725;47.912;7.356;2023-10-19T15:34:18;11.70;10.03;
61804;PMS7003;47725;47.912;7.356;2023-10-19T15:38:19;11.70;10.03;
61804;PMS7003;47725;47.912;7.356;2023-10-19T15:42:18;7.49;7.49;
61804;PMS7003;47725;47.912;7.356;2023-10-19T15:46:18;7.49;7.49;
61804;PMS7003;47725;47.912;7.356;2023-10-19T15:50:18;12.51;11.67;
61804;PMS7003;47725;47.912;7.356;2023-10-19T15:54:18;12.51;11.67;
61804;PMS7003;47725;47.912;7.356;2023-10-19T15:58:18;12.51;11.67;
61804;PMS7003;47725;47.912;7.356;2023-10-19T16:02:18;10.01;8.34;
61804;PMS7003;47725;47.912;7.356;2023-10-19T16:06:18;10.01;8.34;
61804;PMS7003;47725;47.912;7.356;2023-10-19T16:10:18;18.48;13.44;
61804;PMS7003;47725;47.912;7.356;2023-10-19T16:14:18;18.48;13.44;
61804;PMS7003;47725;47.912;7.356;2023-10-19T16:18:18;18.48;13.44;
61804;PMS7003;47725;47.912;7.356;2023-10-19T16:22:18;11.70;11.70;
61804;PMS7003;47725;47.912;7.356;2023-10-19T16:26:18;11.70;11.70;
61804;PMS7003;47725;47.912;7.356;2023-10-19T16:30:18;18.26;18.26;
61804;PMS7003;47725;47.912;7.356;2023-10-19T16:34:18;18.26;18.26;
61804;PMS7003;47725;47.912;7.356;2023-10-19T16:38:18;18.26;18.26;
61804;PMS7003;47725;47.912;7.356;2023-10-19T16:42:18;10.82;9.16;
61804;PMS7003;47725;47.912;7.356;2023-10-19T16:46:18;10.82;9.16;
61804;PMS7003;47725;47.912;7.356;2023-10-19T16:50:19;15.11;15.11;
61804;PMS7003;47725;47.912;7.356;2023-10-19T16:54:18;15.11;15.11;
61804;PMS7003;47725;47.912;7.356;2023-10-19T16:58:18;15.11;15.11;
61804;PMS7003;47725;47.912;7.356;2023-10-19T17:02:18;26.05;25.21;
61804;PMS7003;47725;47.912;7.356;2023-10-19T17:06:18;26.05;25.21;
61804;PMS7003;47725;47.912;7.356;2023-10-19T17:10:19;26.13;24.44;
61804;PMS7003;47725;47.912;7.356;2023-10-19T17:14:18;26.13;24.44;
61804;PMS7003;47725;47.912;7.356;2023-10-19T17:18:18;26.13;24.44;
61804;PMS7003;47725;47.912;7.356;2023-10-19T17:22:19;20.26;16.88;
61804;PMS7003;47725;47.912;7.356;2023-10-19T17:26:18;20.26;16.88;
61804;PMS7003;47725;47.912;7.356;2023-10-19T17:30:18;22.70;21.02;
61804;PMS7003;47725;47.912;7.356;2023-10-19T17:34:18;22.70;21.02;
61804;PMS7003;47725;47.912;7.356;2023-10-19T17:38:18;22.70;21.02;
61804;PMS7003;47725;47.912;7.356;2023-10-19T17:42:18;23.51;23.51;
61804;PMS7003;47725;47.912;7.356;2023-10-19T17:46:18;23.51;23.51;
61804;PMS7003;47725;47.912;7.356;2023-10-19T17:50:18;17.64;15.12;
61804;PMS7003;47725;47.912;7.356;2023-10-19T17:54:18;17.64;15.12;
61804;PMS7003;47725;47.912;7.356;2023-10-19T17:58:18;17.64;15.12;
61804;PMS7003;47725;47.912;7.356;2023-10-19T18:02:18;14.33;12.64;
61804;PMS7003;47725;47.912;7.356;2023-10-19T18:06:18;14.33;12.64;
61804;PMS7003;47725;47.912;7.356;2023-10-19T18:10:18;11.79;11.79;
61804;PMS7003;47725;47.912;7.356;2023-10-19T18:14:18;11.79;11.79;
61804;PMS7003;47725;47.912;7.356;2023-10-19T18:18:18;11.79;11.79;
61804;PMS7003;47725;47.912;7.356;2023-10-19T18:22:18;14.35;14.35;
61804;PMS7003;47725;47.912;7.356;2023-10-19T18:26:18;14.35;14.35;
61804;PMS7003;47725;47.912;7.356;2023-10-19T18:30:18;18.59;17.74;
61804;PMS7003;47725;47.912;7.356;2023-10-19T18:34:18;18.59;17.74;
61804;PMS7003;47725;47.912;7.356;2023-10-19T18:38:18;18.59;17.74;
61804;PMS7003;47725;47.912;7.356;2023-10-19T18:42:18;23.59;21.90;
61804;PMS7003;47725;47.912;7.356;2023-10-19T18:46:18;23.59;21.90;
61804;PMS7003;47725;47.912;7.356;2023-10-19T18:50:18;18.55;15.18;
61804;PMS7003;47725;47.912;7.356;2023-10-19T18:54:18;18.55;15.18;
61804;PMS7003;47725;47.912;7.356;2023-10-19T18:58:18;18.55;15.18;
61804;PMS7003;47725;47.912;7.356;2023-10-19T19:02:18;20.20;17.67;
61804;PMS7003;47725;47.912;7.356;2023-10-19T19:06:18;20.20;17.67;
61804;PMS7003;47725;47.912;7.356;2023-10-19T19:10:18;16.02;14.33;
61804;PMS7003;47725;47.912;7.356;2023-10-19T19:14:18;16.02;14.33;
61804;PMS7003;47725;47.912;7.356;2023-10-19T19:18:18;16.02;14.33;
61804;PMS7003;47725;47.912;7.356;2023-10-19T19:22:18;15.20;13.51;
61804;PMS7003;47725;47.912;7.356;2023-10-19T19:26:18;15.20;13.51;
61804;PMS7003;47725;47.912;7.356;2023-10-19T19:30:18;21.09;20.24;
61804;PMS7003;47725;47.912;7.356;2023-10-19T19:34:19;21.09;20.24;
61804;PMS7003;47725;47.912;7.356;2023-10-19T19:38:18;21.09;20.24;
61804;PMS7003;47725;47.912;7.356;2023-10-19T19:42:18;11.81;11.81;
61804;PMS7003;47725;47.912;7.356;2023-10-19T19:46:18;11.81;11.81;
61804;PMS7003;47725;47.912;7.356;2023-10-19T19:50:18;22.75;22.75;
61804;PMS7003;47725;47.912;7.356;2023-10-19T19:54:18;22.75;22.75;
61804;PMS7003;47725;47.912;7.356;2023-10-19T19:58:18;22.75;22.75;
61804;PMS7003;47725;47.912;7.356;2023-10-19T20:02:18;15.13;14.29;
61804;PMS7003;47725;47.912;7.356;2023-10-19T20:06:18;15.13;14.29;
61804;PMS7003;47725;47.912;7.356;2023-10-19T20:10:18;13.49;13.49;
61804;PMS7003;47725;47.912;7.356;2023-10-19T20:14:18;13.49;13.49;
61804;PMS7003;47725;47.912;7.356;2023-10-19T20:18:18;13.49;13.49;
61804;PMS7003;47725;47.912;7.356;2023-10-19T20:22:18;15.18;15.18;
61804;PMS7003;47725;47.912;7.356;2023-10-19T20:26:18;15.18;15.18;
61804;PMS7003;47725;47.912;7.356;2023-10-19T20:30:18;15.16;13.48;
61804;PMS7003;47725;47.912;7.356;2023-10-19T20:34:18;15.16;13.48;
61804;PMS7003;47725;47.912;7.356;2023-10-19T20:38:18;15.16;13.48;
61804;PMS7003;47725;47.912;7.356;2023-10-19T20:42:18;19.57;19.57;
61804;PMS7003;47725;47.912;7.356;2023-10-19T20:46:18;19.57;19.57;
61804;PMS7003;47725;47.912;7.356;2023-10-19T20:50:18;17.11;15.40;
61804;PMS7003;47725;47.912;7.356;2023-10-19T20:54:18;17.11;15.40;
61804;PMS7003;47725;47.912;7.356;2023-10-19T20:58:18;17.11;15.40;
61804;PMS7003;47725;47.912;7.356;2023-10-19T21:02:18;17.74;16.05;
61804;PMS7003;47725;47.912;7.356;2023-10-19T21:06:18;17.74;16.05;
61804;PMS7003;47725;47.912;7.356;2023-10-19T21:10:18;16.05;12.67;
61804;PMS7003;47725;47.912;7.356;2023-10-19T21:14:18;16.05;12.67;
61804;PMS7003;47725;47.912;7.356;2023-10-19T21:18:18;16.05;12.67;
61804;PMS7003;47725;47.912;7.356;2023-10-19T21:22:18;15.26;14.41;
61804;PMS7003;47725;47.912;7.356;2023-10-19T21:26:18;15.26;14.41;
61804;PMS7003;47725;47.912;7.356;2023-10-19T21:30:18;15.32;12.77;
61804;PMS7003;47725;47.912;7.356;2023-10-19T21:34:18;15.32;12.77;
61804;PMS7003;47725;47.912;7.356;2023-10-19T21:38:18;15.32;12.77;
61804;PMS7003;47725;47.912;7.356;2023-10-19T21:42:18;14.64;13.78;
61804;PMS7003;47725;47.912;7.356;2023-10-19T21:46:18;14.64;13.78;
61804;PMS7003;47725;47.912;7.356;2023-10-19T21:50:18;21.22;19.52;
61804;PMS7003;47725;47.912;7.356;2023-10-19T21:54:18;21.22;19.52;
61804;PMS7003;47725;47.912;7.356;2023-10-19T21:58:18;21.22;19.52;
61804;PMS7003;47725;47.912;7.356;2023-10-19T22:02:18;13.58;13.58;
61804;PMS7003;47725;47.912;7.356;2023-10-19T22:06:18;13.58;13.58;
61804;PMS7003;47725;47.912;7.356;2023-10-19T22:10:18;16.11;13.57;
61804;PMS7003;47725;47.912;7.356;2023-10-19T22:14:18;16.11;13.57;
61804;PMS7003;47725;47.912;7.356;2023-10-19T22:18:18;16.11;13.57;
61804;PMS7003;47725;47.912;7.356;2023-10-19T22:22:19;11.08;11.08;
61804;PMS7003;47725;47.912;7.356;2023-10-19T22:26:18;11.08;11.08;
61804;PMS7003;47725;47.912;7.356;2023-10-19T22:30:18;13.57;12.72;
61804;PMS7003;47725;47.912;7.356;2023-10-19T22:34:18;13.57;12.72;
61804;PMS7003;47725;47.912;7.356;2023-10-19T22:38:18;13.57;12.72;
61804;PMS7003;47725;47.912;7.356;2023-10-19T22:42:18;16.94;13.55;
61804;PMS7003;47725;47.912;7.356;2023-10-19T22:46:18;16.94;13.55;
61804;PMS7003;47725;47.912;7.356;2023-10-19T22:50:18;14.36;14.36;
61804;PMS7003;47725;47.912;7.356;2023-10-19T22:54:18;14.36;14.36;
61804;PMS7003;47725;47.912;7.356;2023-10-19T22:58:18;14.36;14.36;
61804;PMS7003;47725;47.912;7.356;2023-10-19T23:02:18;11.82;11.82;
61804;PMS7003;47725;47.912;7.356;2023-10-19T23:06:18;11.82;11.82;
61804;PMS7003;47725;47.912;7.356;2023-10-19T23:10:18;14.33;12.65;
61804;PMS7003;47725;47.912;7.356;2023-10-19T23:14:18;14.33;12.65;
61804;PMS7003;47725;47.912;7.356;2023-10-19T23:18:18;14.33;12.65;
61804;PMS7003;47725;47.912;7.356;2023-10-19T23:22:19;16.80;16.80;
61804;PMS7003;47725;47.912;7.356;2023-10-19T23:26:18;16.80;16.80;
61804;PMS7003;47725;47.912;7.356;2023-10-19T23:30:18;13.52;13.52;
61804;PMS7003;47725;47.912;7.356;2023-10-19T23:34:18;13.52;13.52;
61804;PMS7003;47725;47.912;7.356;2023-10-19T23:38:18;13.52;13.52;
61804;PMS7003;47725;47.912;7.356;2023-10-19T23:42:18;17.76;16.07;
61804;PMS7003;47725;47.912;7.356;2023-10-19T23:46:18;17.76;16.07;
61804;PMS7003;47725;47.912;7.356;2023-10-19T23:50:18;15.15;15.15;
61804;PMS7003;47725;47.912;7.356;2023-10-19T23:54:18;15.15;15.15;
61804;PMS7003;47725;47.912;7.356;2023-10-19T23:58:18;15.15;15.15;
